createdAt,value
2023-04-05T00:01:34.873Z,5.50
2023-04-05T00:04:03.852Z,6.07
2023-04-05T00:06:32.461Z,5.60
2023-04-05T00:09:01.650Z,5.30
2023-04-05T00:11:31.078Z,5.03
2023-04-05T00:14:00.776Z,5.23
2023-04-05T00:16:31.205Z,5.53
2023-04-05T00:19:00.195Z,5.57
2023-04-05T00:21:28.652Z,5.57
2023-04-05T00:23:58.536Z,5.83
2023-04-05T00:26:27.035Z,6.20
2023-04-05T00:28:55.774Z,5.28
2023-04-05T00:31:24.246Z,5.27
2023-04-05T00:33:54.057Z,5.23
2023-04-05T00:36:22.622Z,5.67
2023-04-05T00:38:51.132Z,5.63
2023-04-05T00:41:19.631Z,5.03
2023-04-05T00:43:48.848Z,5.27
2023-04-05T00:46:18.138Z,6.10
2023-04-05T00:48:47.138Z,5.87
2023-04-05T00:51:17.423Z,5.60
2023-04-05T00:53:47.825Z,6.13
2023-04-05T00:56:17.069Z,5.80
2023-04-05T00:58:45.534Z,5.70
2023-04-05T01:01:16.715Z,5.80
2023-04-05T01:03:46.845Z,5.90
2023-04-05T01:06:24.696Z,5.70
2023-04-05T01:08:57.337Z,6.20
2023-04-05T01:11:27.158Z,6.53
2023-04-05T01:13:59.886Z,5.87
2023-04-05T01:16:28.416Z,6.60
2023-04-05T01:18:57.650Z,6.47
2023-04-05T01:21:40.767Z,6.43
2023-04-05T01:24:17.179Z,6.20
2023-04-05T01:26:55.152Z,5.80
2023-04-05T01:29:34.665Z,6.40
2023-04-05T01:32:05.228Z,6.03
2023-04-05T01:34:35.987Z,6.23
2023-04-05T01:37:05.119Z,6.40
2023-04-05T01:39:33.868Z,6.23
2023-04-05T01:42:02.800Z,6.03
2023-04-05T01:44:32.876Z,6.50
2023-04-05T01:47:01.351Z,6.70
2023-04-05T01:49:29.756Z,6.70
2023-04-05T01:51:58.197Z,6.40
2023-04-05T01:54:26.675Z,6.23
2023-04-05T01:56:55.126Z,6.53
2023-04-05T01:59:23.564Z,7.17
2023-04-05T02:01:53.515Z,6.63
2023-04-05T02:04:21.939Z,6.67
2023-04-05T02:06:50.587Z,7.40
2023-04-05T02:09:19.159Z,6.40
2023-04-05T02:11:47.585Z,6.83
2023-04-05T02:14:16.307Z,6.77
2023-04-05T02:16:45.012Z,6.50
2023-04-05T02:19:15.945Z,6.97
2023-04-05T02:21:46.247Z,6.03
2023-04-05T02:24:14.700Z,6.90
2023-04-05T02:26:43.170Z,6.40
2023-04-05T02:29:11.596Z,6.70
2023-04-05T02:31:40.071Z,7.37
2023-04-05T02:34:09.218Z,6.33
2023-04-05T02:36:39.022Z,6.53
2023-04-05T02:39:07.419Z,7.37
2023-04-05T02:41:35.889Z,6.87
2023-04-05T02:44:04.453Z,6.67
2023-04-05T02:46:32.908Z,6.80
2023-04-05T02:49:01.321Z,6.90
2023-04-05T02:51:29.777Z,6.93
2023-04-05T02:53:59.547Z,7.50
2023-04-05T02:56:27.991Z,8.20
2023-04-05T02:58:56.454Z,7.67
2023-04-05T03:01:25.010Z,7.53
2023-04-05T03:03:53.547Z,6.67
2023-04-05T03:06:22.545Z,6.87
2023-04-05T03:08:50.964Z,7.57
2023-04-05T03:11:20.895Z,7.53
2023-04-05T03:13:49.302Z,7.60
2023-04-05T03:16:17.765Z,7.27
2023-04-05T03:18:46.660Z,7.57
2023-04-05T03:21:17.960Z,7.17
2023-04-05T03:23:48.479Z,7.67
2023-04-05T03:26:17.028Z,7.43
2023-04-05T03:28:46.795Z,8.07
2023-04-05T03:31:15.259Z,7.23
2023-04-05T03:33:43.758Z,7.53
2023-04-05T03:36:16.544Z,7.63
2023-04-05T03:38:46.638Z,7.33
2023-04-05T03:41:16.280Z,7.30
2023-04-05T03:43:44.705Z,7.60
2023-04-05T03:46:14.568Z,7.37
2023-04-05T03:48:43.000Z,7.43
2023-04-05T03:51:11.788Z,7.63
2023-04-05T03:53:40.764Z,7.50
2023-04-05T03:56:09.640Z,7.50
2023-04-05T03:58:38.303Z,7.67
2023-04-05T04:01:06.825Z,8.13
2023-04-05T04:03:37.408Z,7.43
2023-04-05T04:06:06.245Z,7.23
2023-04-05T04:08:34.908Z,7.17
2023-04-05T04:11:03.372Z,6.93
2023-04-05T04:13:31.830Z,8.00
2023-04-05T04:16:00.409Z,7.47
2023-04-05T04:18:28.978Z,7.50
2023-04-05T04:20:58.984Z,8.57
2023-04-05T04:23:27.442Z,7.93
2023-04-05T04:25:55.928Z,7.50
2023-04-05T04:28:25.190Z,8.43
2023-04-05T04:30:53.716Z,7.97
2023-04-05T04:33:22.321Z,8.07
2023-04-05T04:35:50.826Z,7.93
2023-04-05T04:38:20.730Z,8.03
2023-04-05T04:40:50.997Z,8.50
2023-04-05T04:43:19.614Z,8.83
2023-04-05T04:45:48.475Z,8.30
2023-04-05T04:48:17.289Z,7.67
2023-04-05T04:50:45.721Z,7.70
2023-04-05T04:53:17.463Z,11.20
2023-04-05T04:55:50.272Z,10.27
2023-04-05T04:58:19.023Z,9.87
2023-04-05T05:00:48.329Z,8.80
2023-04-05T05:03:16.983Z,8.63
2023-04-05T05:05:45.795Z,8.87
2023-04-05T05:08:14.608Z,9.73
2023-04-05T05:10:43.340Z,8.30
2023-04-05T05:13:13.419Z,8.37
2023-04-05T05:15:42.644Z,8.77
2023-04-05T05:18:12.434Z,8.43
2023-04-05T05:20:41.607Z,8.77
2023-04-05T05:23:10.248Z,8.70
2023-04-05T05:25:38.879Z,9.10
2023-04-05T05:28:07.426Z,8.90
2023-04-05T05:30:37.230Z,8.97
2023-04-05T05:33:06.123Z,9.23
2023-04-05T05:35:34.781Z,8.07
2023-04-05T05:38:03.281Z,8.63
2023-04-05T05:40:31.764Z,8.40
2023-04-05T05:43:00.256Z,8.33
2023-04-05T05:45:28.689Z,8.60
2023-04-05T05:47:59.510Z,9.13
2023-04-05T05:50:27.981Z,8.77
2023-04-05T05:52:56.425Z,8.97
2023-04-05T05:55:24.843Z,8.90
2023-04-05T05:57:53.620Z,8.67
2023-04-05T06:00:22.815Z,8.23
2023-04-05T06:02:52.294Z,8.97
2023-04-05T06:05:22.214Z,8.83
2023-04-05T06:07:50.944Z,9.80
2023-04-05T06:10:19.772Z,8.20
2023-04-05T06:12:48.277Z,8.83
2023-04-05T06:15:16.757Z,8.93
2023-04-05T06:17:45.329Z,8.87
2023-04-05T06:20:14.002Z,9.10
2023-04-05T06:22:44.636Z,8.43
2023-04-05T06:25:13.440Z,8.70
2023-04-05T06:27:41.963Z,8.97
2023-04-05T06:30:11.056Z,8.90
2023-04-05T06:32:39.523Z,9.30
2023-04-05T06:35:08.696Z,8.83
2023-04-05T06:37:37.119Z,9.33
2023-04-05T06:40:07.694Z,8.97
2023-04-05T06:42:36.372Z,8.70
2023-04-05T06:45:05.226Z,8.87
2023-04-05T06:47:35.745Z,8.83
2023-04-05T06:50:04.300Z,7.67
2023-04-05T06:52:32.828Z,8.83
2023-04-05T06:55:01.433Z,7.63
2023-04-05T06:57:31.331Z,7.63
2023-04-05T06:59:59.781Z,7.40
2023-04-05T07:02:28.282Z,7.27
2023-04-05T07:05:03.680Z,6.40
2023-04-05T07:07:32.168Z,6.78
2023-04-05T07:10:00.814Z,6.90
2023-04-05T07:12:29.389Z,7.18
2023-04-05T07:14:59.288Z,6.55
2023-04-05T07:17:27.861Z,5.72
2023-04-05T07:19:56.361Z,5.18
2023-04-05T07:22:24.883Z,5.50
2023-04-05T07:24:53.508Z,5.50
2023-04-05T07:27:22.287Z,6.20
2023-04-05T07:29:50.993Z,5.65
2023-04-05T07:32:20.953Z,5.28
2023-04-05T07:34:49.537Z,5.50
2023-04-05T07:37:18.248Z,5.95
2023-04-05T07:39:46.834Z,5.20
2023-04-05T07:42:15.368Z,5.43
2023-04-05T07:44:43.838Z,5.70
2023-04-05T07:47:12.369Z,5.53
2023-04-05T07:49:42.256Z,5.60
2023-04-05T07:52:11.104Z,5.82
2023-04-05T07:54:41.456Z,5.20
2023-04-05T07:57:10.318Z,5.43
2023-04-05T07:59:39.070Z,6.13
2023-04-05T08:02:14.721Z,5.75
2023-04-05T08:04:45.104Z,5.53
2023-04-05T08:07:13.740Z,5.35
2023-04-05T08:09:42.180Z,5.20
2023-04-05T08:12:11.468Z,5.55
2023-04-05T08:14:40.274Z,5.75
2023-04-05T08:17:08.810Z,5.18
2023-04-05T08:19:37.438Z,5.60
2023-04-05T08:22:07.471Z,5.60
2023-04-05T08:24:36.210Z,5.55
2023-04-05T08:27:05.031Z,5.40
2023-04-05T08:29:33.593Z,5.50
2023-04-05T08:32:02.341Z,5.82
2023-04-05T08:34:31.030Z,5.30
2023-04-05T08:37:00.763Z,5.68
2023-04-05T08:39:30.732Z,5.95
2023-04-05T08:42:05.695Z,5.70
2023-04-05T08:44:34.626Z,5.07
2023-04-05T08:47:03.049Z,5.47
2023-04-05T08:49:31.643Z,5.55
2023-04-05T08:52:02.117Z,6.07
2023-04-05T08:54:32.002Z,5.32
2023-04-05T08:57:01.483Z,6.25
2023-04-05T08:59:32.373Z,5.30
2023-04-05T09:02:02.327Z,6.18
2023-04-05T09:04:32.154Z,6.40
2023-04-05T09:07:01.025Z,6.47
2023-04-05T09:09:30.423Z,5.88
2023-04-05T09:12:01.467Z,6.20
2023-04-05T09:14:31.586Z,6.22
2023-04-05T09:17:01.341Z,5.80
2023-04-05T09:19:29.830Z,6.25
2023-04-05T09:22:02.375Z,7.00
2023-04-05T09:24:35.183Z,6.13
2023-04-05T09:27:08.726Z,6.35
2023-04-05T09:29:37.289Z,6.43
2023-04-05T09:32:06.788Z,6.80
2023-04-05T09:34:36.934Z,6.97
2023-04-05T09:37:08.360Z,6.35
2023-04-05T09:39:36.822Z,7.22
2023-04-05T09:42:11.694Z,6.07
2023-04-05T09:44:53.061Z,6.30
2023-04-05T09:47:22.267Z,6.72
2023-04-05T09:49:50.718Z,6.85
2023-04-05T09:52:20.065Z,7.15
2023-04-05T09:54:48.589Z,7.18
2023-04-05T09:57:19.588Z,7.00
2023-04-05T09:59:48.470Z,7.13
2023-04-05T10:02:17.783Z,7.43
2023-04-05T10:04:47.097Z,6.90
2023-04-05T10:07:16.240Z,6.93
2023-04-05T10:09:45.357Z,7.15
2023-04-05T10:12:16.506Z,7.10
2023-04-05T10:14:46.879Z,6.68
2023-04-05T10:17:21.133Z,7.25
2023-04-05T10:19:56.842Z,7.45
2023-04-05T10:22:26.803Z,6.65
2023-04-05T10:24:57.431Z,7.13
2023-04-05T10:27:32.249Z,6.57
2023-04-05T10:30:06.015Z,7.30
2023-04-05T10:32:41.856Z,6.82
2023-04-05T10:35:11.409Z,6.88
2023-04-05T10:37:44.024Z,6.70
2023-04-05T10:40:13.966Z,6.72
2023-04-05T10:42:44.319Z,6.65
2023-04-05T10:45:17.659Z,6.90
2023-04-05T10:47:56.505Z,7.13
2023-04-05T10:50:25.824Z,6.63
2023-04-05T10:52:54.522Z,6.78
2023-04-05T10:55:22.978Z,6.85
2023-04-05T10:57:51.805Z,6.25
2023-04-05T11:00:22.354Z,7.38
2023-04-05T11:02:51.476Z,7.30
2023-04-05T11:05:30.950Z,7.40
2023-04-05T11:08:01.968Z,7.10
2023-04-05T11:10:30.804Z,6.85
2023-04-05T11:13:09.193Z,7.43
2023-04-05T11:15:39.914Z,6.88
2023-04-05T11:18:12.776Z,6.93
2023-04-05T11:20:45.112Z,7.25
2023-04-05T11:23:13.986Z,7.90
2023-04-05T11:25:42.802Z,6.55
2023-04-05T11:28:12.025Z,7.15
2023-04-05T11:30:52.177Z,7.57
2023-04-05T11:33:39.975Z,7.00
2023-04-05T11:36:09.958Z,6.97
2023-04-05T11:38:38.655Z,7.30
2023-04-05T11:41:07.771Z,6.65
2023-04-05T11:43:38.357Z,7.22
2023-04-05T11:46:08.269Z,6.90
2023-04-05T11:48:37.002Z,6.90
2023-04-05T11:51:09.538Z,7.35
2023-04-05T11:53:38.059Z,7.20
2023-04-05T11:56:12.860Z,7.15
2023-04-05T11:58:41.364Z,8.00
2023-04-05T12:01:11.615Z,7.50
2023-04-05T12:03:40.278Z,7.38
2023-04-05T12:06:09.077Z,7.82
2023-04-05T12:08:42.038Z,7.65
2023-04-05T12:11:11.577Z,7.93
2023-04-05T12:13:40.853Z,7.90
2023-04-05T12:16:11.217Z,7.45
2023-04-05T12:18:40.049Z,8.05
2023-04-05T12:21:10.098Z,8.20
2023-04-05T12:23:39.123Z,8.10
2023-04-05T12:26:08.833Z,8.25
2023-04-05T12:28:56.067Z,8.38
2023-04-05T12:31:42.021Z,7.50
2023-04-05T12:34:11.238Z,8.52
2023-04-05T12:36:40.184Z,8.40
2023-04-05T12:39:09.421Z,8.23
2023-04-05T12:41:38.508Z,8.35
2023-04-05T12:44:07.423Z,8.25
2023-04-05T12:46:43.770Z,8.45
2023-04-05T12:49:12.875Z,9.73
2023-04-05T12:51:44.623Z,8.93
2023-04-05T12:54:14.915Z,7.90
2023-04-05T12:56:43.769Z,8.73
2023-04-05T12:59:12.451Z,8.52
2023-04-05T13:01:41.029Z,8.98
2023-04-05T13:06:42.652Z,8.70
2023-04-05T13:09:11.158Z,8.60
2023-04-05T13:11:39.645Z,8.98
2023-04-05T13:14:08.129Z,8.52
2023-04-05T13:16:36.717Z,8.25
2023-04-05T13:19:05.346Z,8.75
2023-04-05T13:21:35.283Z,7.80
2023-04-05T13:24:04.031Z,8.68
2023-04-05T13:26:32.570Z,7.80
2023-04-05T13:29:01.879Z,8.18
2023-04-05T13:31:30.544Z,8.10
2023-04-05T13:33:59.041Z,8.20
2023-04-05T13:36:27.736Z,8.20
2023-04-05T13:38:57.609Z,8.23
2023-04-05T13:41:26.139Z,8.75
2023-04-05T13:43:54.609Z,8.07
2023-04-05T13:46:23.115Z,8.40
2023-04-05T13:48:51.596Z,8.20
2023-04-05T13:51:20.051Z,8.13
2023-04-05T13:53:49.000Z,7.68
2023-04-05T13:56:18.825Z,8.80
2023-04-05T13:58:48.613Z,8.27
2023-04-05T14:01:17.171Z,8.85
2023-04-05T14:03:45.795Z,8.75
2023-04-05T14:06:14.339Z,8.68
2023-04-05T14:08:42.850Z,8.57
2023-04-05T14:11:11.389Z,8.52
2023-04-05T14:13:41.215Z,8.18
2023-04-05T14:16:09.655Z,8.10
2023-04-05T14:18:38.092Z,7.63
2023-04-05T14:21:06.569Z,8.30
2023-04-05T14:23:35.153Z,8.02
2023-04-05T14:26:03.588Z,8.15
2023-04-05T14:28:32.080Z,7.72
2023-04-05T14:31:02.126Z,7.70
2023-04-05T14:33:30.552Z,8.45
2023-04-05T14:35:59.127Z,7.65
2023-04-05T14:38:27.658Z,7.65
2023-04-05T14:40:56.092Z,7.15
2023-04-05T14:43:25.900Z,6.88
2023-04-05T14:45:54.468Z,7.07
2023-04-05T14:48:24.287Z,7.55
2023-04-05T14:50:52.757Z,7.03
2023-04-05T14:53:21.445Z,7.15
2023-04-05T14:55:49.953Z,7.28
2023-04-05T14:58:18.378Z,6.65
2023-04-05T15:00:47.134Z,7.55
2023-04-05T15:03:15.643Z,7.05
2023-04-05T15:05:46.059Z,6.88
2023-04-05T15:08:14.551Z,7.35
2023-04-05T15:10:43.591Z,6.90
2023-04-05T15:13:12.252Z,6.97
2023-04-05T15:15:40.934Z,7.88
2023-04-05T15:18:09.411Z,7.05
2023-04-05T15:20:37.968Z,7.07
2023-04-05T15:23:07.797Z,6.60
2023-04-05T15:25:36.318Z,6.65
2023-04-05T15:28:07.049Z,6.38
2023-04-05T15:30:35.677Z,6.70
2023-04-05T15:33:04.312Z,6.97
2023-04-05T15:35:36.112Z,6.80
2023-04-05T15:38:04.617Z,6.88
2023-04-05T15:40:34.486Z,7.30
2023-04-05T15:43:03.038Z,6.93
2023-04-05T15:45:31.829Z,7.13
2023-04-05T15:48:00.405Z,6.93
2023-04-05T15:50:28.947Z,6.80
2023-04-05T15:52:57.384Z,6.65
2023-04-05T15:55:26.843Z,6.30
2023-04-05T15:57:56.659Z,6.25
2023-04-05T16:00:27.596Z,6.90
2023-04-05T16:03:00.785Z,6.50
2023-04-05T16:05:29.484Z,7.00
2023-04-05T16:07:57.929Z,7.25
2023-04-05T16:10:27.041Z,7.05
2023-04-05T16:12:56.892Z,6.90
2023-04-05T16:15:25.731Z,6.35
2023-04-05T16:17:54.185Z,7.38
2023-04-05T16:20:23.828Z,7.28
2023-04-05T16:22:53.171Z,7.03
2023-04-05T16:25:24.314Z,7.18
2023-04-05T16:27:52.780Z,6.80
2023-04-05T16:30:22.745Z,6.60
2023-04-05T16:32:52.208Z,6.63
2023-04-05T16:35:20.834Z,7.10
2023-04-05T16:37:49.274Z,7.22
2023-04-05T16:40:18.419Z,7.25
2023-04-05T16:42:46.857Z,7.15
2023-04-05T16:45:15.553Z,6.93
2023-04-05T16:47:45.400Z,6.35
2023-04-05T16:50:14.007Z,6.93
2023-04-05T16:52:42.497Z,7.00
2023-04-05T16:55:11.561Z,6.97
2023-04-05T16:57:40.075Z,7.30
2023-04-05T17:00:09.136Z,6.75
2023-04-05T17:02:37.706Z,6.97
2023-04-05T17:05:08.551Z,6.60
2023-04-05T17:07:37.158Z,6.18
2023-04-05T17:10:05.829Z,6.40
2023-04-05T17:12:35.449Z,6.45
2023-04-05T17:15:03.923Z,6.20
2023-04-05T17:17:32.613Z,6.30
2023-04-05T17:20:01.216Z,6.53
2023-04-05T17:22:31.590Z,5.90
2023-04-05T17:25:01.049Z,6.68
2023-04-05T17:27:29.731Z,6.30
2023-04-05T17:29:59.317Z,6.47
2023-04-05T17:32:28.838Z,5.97
2023-04-05T17:34:57.347Z,5.68
2023-04-05T17:37:25.756Z,5.85
2023-04-05T17:39:55.645Z,5.78
2023-04-05T17:42:24.081Z,5.90
2023-04-05T17:44:53.820Z,6.15
2023-04-05T17:47:24.065Z,6.20
2023-04-05T17:49:52.600Z,6.40
2023-04-05T17:52:22.617Z,6.63
2023-04-05T17:54:52.478Z,6.15
2023-04-05T17:57:22.824Z,5.75
2023-04-05T17:59:51.515Z,5.50
2023-04-05T18:02:19.977Z,6.07
2023-04-05T18:04:48.564Z,6.45
2023-04-05T18:07:17.006Z,5.40
2023-04-05T18:09:45.937Z,5.68
2023-04-05T18:12:14.512Z,6.10
2023-04-05T18:14:44.793Z,5.90
2023-04-05T18:17:13.231Z,6.22
2023-04-05T18:19:41.743Z,5.35
2023-04-05T18:22:10.175Z,6.18
2023-04-05T18:24:38.620Z,6.20
2023-04-05T18:27:07.051Z,5.97
2023-04-05T18:29:38.222Z,6.10
2023-04-05T18:32:08.882Z,6.03
2023-04-05T18:34:37.425Z,6.05
2023-04-05T18:37:05.868Z,6.75
2023-04-05T18:39:34.318Z,6.90
2023-04-05T18:42:03.136Z,7.35
2023-04-05T18:44:31.618Z,5.80
2023-04-05T18:47:01.246Z,5.95
2023-04-05T18:49:31.356Z,6.70
2023-04-05T18:51:59.925Z,5.50
2023-04-05T18:54:28.366Z,5.90
2023-04-05T18:56:56.922Z,6.05
2023-04-05T18:59:25.402Z,6.13
2023-04-05T19:01:54.282Z,5.68
2023-04-05T19:04:22.822Z,5.85
2023-04-05T19:06:52.738Z,6.28
2023-04-05T19:09:22.193Z,6.43
2023-04-05T19:11:50.817Z,6.38
2023-04-05T19:14:19.565Z,6.22
2023-04-05T19:16:48.046Z,5.70
2023-04-05T19:19:16.672Z,6.55
2023-04-05T19:21:45.216Z,5.63
2023-04-05T19:24:15.165Z,5.82
2023-04-05T19:26:44.083Z,6.38
2023-04-05T19:29:12.667Z,6.22
2023-04-05T19:31:41.610Z,6.30
2023-04-05T19:34:10.443Z,6.88
2023-04-05T19:36:39.498Z,6.38
2023-04-05T19:39:08.620Z,6.88
2023-04-05T19:41:39.020Z,7.00
2023-04-05T19:44:09.211Z,7.15
2023-04-05T19:46:39.912Z,6.90
2023-04-05T19:49:10.404Z,6.15
2023-04-05T19:51:39.217Z,6.15
2023-04-05T19:54:11.848Z,6.38
2023-04-05T19:56:42.083Z,6.75
2023-04-05T19:59:27.473Z,6.85
2023-04-05T20:01:56.549Z,5.90
2023-04-05T20:04:26.396Z,6.05
2023-04-05T20:06:56.074Z,6.43
2023-04-05T20:09:26.115Z,6.10
2023-04-05T20:11:58.364Z,6.85
2023-04-05T20:14:29.125Z,6.63
2023-04-05T20:16:57.866Z,6.43
2023-04-05T20:19:29.668Z,6.22
2023-04-05T20:22:00.111Z,6.45
2023-04-05T20:24:29.765Z,5.13
2023-04-05T20:27:00.040Z,5.38
2023-04-05T20:29:32.178Z,5.57
2023-04-05T20:32:01.872Z,5.75
2023-04-05T20:34:30.994Z,6.03
2023-04-05T20:37:01.681Z,5.78
2023-04-05T20:39:31.011Z,5.55
2023-04-05T20:42:01.131Z,5.95
2023-04-05T20:44:29.709Z,5.70
2023-04-05T20:46:58.690Z,6.57
2023-04-05T20:49:28.060Z,5.78
2023-04-05T20:51:57.483Z,5.75
2023-04-05T20:54:27.316Z,5.45
2023-04-05T20:56:55.797Z,6.32
2023-04-05T20:59:26.349Z,6.25
2023-04-05T21:01:55.106Z,6.30
2023-04-05T21:04:23.628Z,6.25
2023-04-05T21:06:52.304Z,6.38
2023-04-05T21:09:21.233Z,6.40
2023-04-05T21:11:49.717Z,5.93
2023-04-05T21:14:18.244Z,6.65
2023-04-05T21:16:48.363Z,6.22
2023-04-05T21:19:16.958Z,6.07
2023-04-05T21:21:45.415Z,6.03
2023-04-05T21:24:13.854Z,6.78
2023-04-05T21:26:42.383Z,6.38
2023-04-05T21:29:11.100Z,6.35
2023-04-05T21:31:39.635Z,7.07
2023-04-05T21:34:09.429Z,7.13
2023-04-05T21:36:37.906Z,6.57
2023-04-05T21:39:06.569Z,6.57
2023-04-05T21:41:35.437Z,6.30
2023-04-05T21:44:03.877Z,6.40
2023-04-05T21:46:32.376Z,6.88
2023-04-05T21:49:00.828Z,7.35
2023-04-05T21:51:30.718Z,7.00
2023-04-05T21:53:59.133Z,7.05
2023-04-05T21:56:27.618Z,6.07
2023-04-05T21:58:56.304Z,6.78
2023-04-05T22:01:24.825Z,6.80
2023-04-05T22:03:53.359Z,6.60
2023-04-05T22:06:21.796Z,7.20
2023-04-05T22:08:53.080Z,7.10
2023-04-05T22:11:21.713Z,6.55
2023-04-05T22:13:50.156Z,7.05
2023-04-05T22:16:18.628Z,6.82
2023-04-05T22:18:47.304Z,6.32
2023-04-05T22:21:16.288Z,6.45
2023-04-05T22:23:44.687Z,7.88
2023-04-05T22:26:14.522Z,7.20
2023-04-05T22:28:42.977Z,6.88
2023-04-05T22:31:11.506Z,6.72
2023-04-05T22:33:39.940Z,6.67
2023-04-05T22:36:09.712Z,7.32
2023-04-05T22:38:38.272Z,7.20
2023-04-05T22:41:06.846Z,7.05
2023-04-05T22:43:36.729Z,7.10
2023-04-05T22:46:05.268Z,7.30
2023-04-05T22:48:33.800Z,7.22
2023-04-05T22:51:02.294Z,7.05
2023-04-05T22:53:30.762Z,7.30
2023-04-05T22:55:59.184Z,6.73
2023-04-05T22:58:29.694Z,8.00
2023-04-05T23:00:59.539Z,7.60
2023-04-05T23:03:28.052Z,7.47
2023-04-05T23:05:56.596Z,8.27
2023-04-05T23:08:25.054Z,8.07
2023-04-05T23:10:53.539Z,7.70
2023-04-05T23:13:22.448Z,7.90
2023-04-05T23:15:51.158Z,7.33
2023-04-05T23:18:22.882Z,8.15
2023-04-05T23:20:51.702Z,7.47
2023-04-05T23:23:20.329Z,8.20
2023-04-05T23:25:48.901Z,8.97
2023-04-05T23:28:17.455Z,8.60
2023-04-05T23:30:45.892Z,8.07
2023-04-05T23:33:14.344Z,7.70
2023-04-05T23:35:44.184Z,7.87
2023-04-05T23:38:12.810Z,8.33
2023-04-05T23:40:41.327Z,8.13
2023-04-05T23:43:09.789Z,7.93
2023-04-05T23:45:38.730Z,8.30
2023-04-05T23:48:07.428Z,7.40
2023-04-05T23:50:35.936Z,7.40
2023-04-05T23:53:05.914Z,7.90
2023-04-05T23:55:35.211Z,7.50
2023-04-05T23:58:03.696Z,7.93
